Hovedside
METAR-TAF:

METAR-TAF

Lufthavner :

Arvidsjaur lufthavn

Arvidsjaur, Sverige

breddegrad: 65-35-25N, lengdegrad: 019-16-55E, høyde over havet: 379 m

Gjeldene værobservasjon

Denne rapporten ble laget for 33 minutter siden, klokken 19:20 UTC
Vind 10 kt fra Sør-sørøst
Temperatur 15°C
Luftfuktighet 88%
Trykk 1008 hPa
Sikt 10 km eller mer

METAR: ESNX 161920Z AUTO 16010KT 9999 FEW009/// BKN016/// BKN028/// 15/13 Q1008

Tid: 21:53 (19:53 UTC)

Varsel

Denne rapporten ble laget for 14 timer og 23 minutter siden, klokken 05:30 UTC
Varsel gyldig fra 16. klokken 06 UTC til 16. klokken 09 UTC
Vind 12 kt fra Sør
Sikt 10 km eller mer
ingen skyer under 1500 m og ingen bygeskyer
Sannsynlighet 40%
fra 16. klokken 06 UTC til 16. klokken 08 UTC
Brutte skyer i en høyde av 1200 ft

TAF: ESNX 160530Z 1606/1609 18012KT CAVOK PROB40 1606/1608 BKN012

Værobservasjoner og værvarsel for over 4000 flyplasser (METAR- og TAF-rapporter).

Tilgjengelige stasjoner er representert av de røde og gule prikkene på kartet.

Hold musepekeren over prikken for å se navnet på stasjonen.

Klikk så for å se værobservasjoner og -varsler.

For å forandre kartet kan du klikke på den grønne knappen med svart kryss for å zoome inn, på den grønne knappen med strek for å zoome ut, eller på de grønne pilene for å se tilstøtende kart.


METAR-TAF: